Etusivu
METAR-TAF:

METAR-TAF

Lentoasemat :

Coleman, Texas, Yhdysvallat

Leveyspiiri: 31-50-28N, Pituuspiiri: 099-24-12W, korkeus merenpinnasta: 517 m

Tämänhetkinen sää

Tämä raportti tehtiin 1 tunti ja 19 minuuttia sitten, kello 19.34 UTC
Tuuli 4 kn idästä
Lämpötila 13°C
Kosteus 77%
Ilmanpaine 1015 hPa
Näkyvyys: 16.1 km
Pilvistä 2000 ft:n korkeudessa
heikkoa sadetta

METAR: KCOM 231934Z AUTO 08004KT 10SM -RA OVC020 13/09 A2996 RMK AO2

Aika: 13:53 (20:53 UTC)


TAF: puuttuu

Säähavainnot ja -ennusteet yli 4000 lentoasemalta (METAR- ja TAF-raportit).

Käytössä olevat sääasemat on merkitty karttaan keltaisilla ja punaisilla pisteillä.

Aseta hiiri pisteen päälle nähdäksesi sääaseman nimen.

Klikkaa sitten nähdäksesi säähavainnot ja -ennusteet.

Kartan vaihtaminen: klikkaa mustalla rastilla varustettuja vihreitä pisteitä, niin voit zoomata sisään; viivalla varustettua vihreää pistettä, niin voit zoomata ulos tai vihreitä nuolia, niin pääset viereisille kartoille.


METAR-TAF: